createdAt,value
2023-01-13T00:04:21.179Z,12.84
2023-01-13T00:09:22.783Z,12.87
2023-01-13T00:14:24.655Z,12.87
2023-01-13T00:19:26.138Z,12.77
2023-01-13T00:24:27.749Z,12.82
2023-01-13T00:29:29.232Z,12.87
2023-01-13T00:34:30.716Z,12.85
2023-01-13T00:39:32.435Z,12.69
2023-01-13T00:44:33.988Z,12.00
2023-01-13T00:49:35.521Z,11.72
2023-01-13T00:54:37.071Z,11.33
2023-01-13T00:59:38.652Z,11.13
2023-01-13T01:04:40.145Z,10.99
2023-01-13T01:09:41.641Z,10.66
2023-01-13T01:14:43.194Z,10.71
2023-01-13T01:19:44.729Z,10.89
2023-01-13T01:24:47.673Z,10.96
2023-01-13T01:29:49.221Z,11.12
2023-01-13T01:34:51.504Z,11.30
2023-01-13T01:39:53.024Z,11.31
2023-01-13T01:45:17.383Z,11.44
2023-01-13T01:50:19.739Z,11.53
2023-01-13T01:55:28.957Z,11.54
2023-01-13T02:00:30.626Z,11.03
2023-01-13T02:05:32.188Z,10.56
2023-01-13T02:10:33.758Z,10.41
2023-01-13T02:16:13.655Z,10.40
2023-01-13T02:21:21.180Z,10.51
2023-01-13T02:26:44.130Z,10.54
2023-01-13T02:31:49.627Z,10.45
2023-01-13T02:37:14.458Z,10.33
2023-01-13T02:42:32.691Z,10.47
2023-01-13T02:47:38.051Z,10.61
2023-01-13T02:52:45.523Z,10.61
2023-01-13T02:57:49.487Z,10.80
2023-01-13T03:02:51.061Z,10.84
2023-01-13T03:08:14.164Z,10.69
2023-01-13T03:13:15.622Z,10.68
2023-01-13T03:18:45.302Z,10.59
2023-01-13T03:23:54.622Z,10.45
2023-01-13T03:29:03.324Z,10.26
2023-01-13T03:34:12.800Z,10.44
2023-01-13T03:39:20.097Z,10.43
2023-01-13T03:44:29.661Z,10.27
2023-01-13T03:50:00.416Z,10.19
2023-01-13T03:55:08.218Z,10.29
2023-01-13T04:00:12.468Z,10.16
2023-01-13T04:05:14.756Z,10.33
2023-01-13T04:10:26.072Z,10.34
2023-01-13T04:15:37.406Z,10.22
2023-01-13T04:20:39.845Z,10.01
2023-01-13T04:25:42.754Z,9.70
2023-01-13T04:30:45.393Z,9.57
2023-01-13T04:35:47.852Z,9.38
2023-01-13T04:40:55.150Z,9.11
2023-01-13T04:45:56.801Z,8.82
2023-01-13T04:50:58.369Z,8.78
2023-01-13T04:55:59.990Z,8.65
2023-01-13T05:01:01.809Z,8.64
2023-01-13T05:06:03.511Z,8.69
2023-01-13T05:11:05.235Z,8.61
2023-01-13T05:16:11.342Z,8.61
2023-01-13T05:21:13.170Z,8.73
2023-01-13T05:26:14.712Z,8.81
2023-01-13T05:31:16.412Z,8.62
2023-01-13T05:36:18.132Z,8.49
2023-01-13T05:41:19.675Z,8.70
2023-01-13T05:46:21.200Z,8.90
2023-01-13T05:51:22.829Z,9.23
2023-01-13T05:56:24.369Z,9.34
2023-01-13T06:01:25.977Z,9.62
2023-01-13T06:06:27.712Z,9.80
2023-01-13T06:11:29.321Z,9.89
2023-01-13T06:16:30.979Z,10.14
2023-01-13T06:21:33.377Z,10.20
2023-01-13T06:26:39.489Z,10.23
2023-01-13T06:31:41.127Z,10.45
2023-01-13T06:36:48.039Z,10.46
2023-01-13T06:41:53.974Z,10.54
2023-01-13T06:46:55.571Z,10.69
2023-01-13T06:51:57.165Z,10.64
2023-01-13T06:56:58.718Z,10.66
2023-01-13T07:02:00.322Z,10.72
2023-01-13T07:07:02.038Z,10.65
2023-01-13T07:12:03.880Z,10.65
2023-01-13T07:17:05.565Z,10.71
2023-01-13T07:22:07.110Z,10.53
2023-01-13T07:27:08.712Z,10.53
2023-01-13T07:32:10.313Z,10.39
2023-01-13T07:37:11.903Z,10.33
2023-01-13T07:42:13.427Z,10.33
2023-01-13T07:47:15.029Z,9.68
2023-01-13T07:52:16.660Z,9.26
2023-01-13T07:57:18.357Z,9.20
2023-01-13T08:02:20.007Z,9.04
2023-01-13T08:07:21.627Z,8.98
2023-01-13T08:12:23.132Z,9.04
2023-01-13T08:17:24.751Z,8.99
2023-01-13T08:22:26.345Z,9.04
2023-01-13T08:27:27.993Z,9.15
2023-01-13T08:32:29.519Z,9.23
2023-01-13T08:37:31.216Z,9.41
2023-01-13T08:42:33.040Z,9.44
2023-01-13T08:47:34.675Z,9.73
2023-01-13T08:52:36.455Z,9.91
2023-01-13T08:57:38.316Z,10.84
2023-01-13T09:02:40.039Z,10.89
2023-01-13T09:07:41.590Z,10.51
2023-01-13T09:12:43.168Z,10.58
2023-01-13T09:17:45.353Z,11.08
2023-01-13T09:22:46.888Z,11.25
2023-01-13T09:27:48.549Z,10.95
2023-01-13T09:32:50.317Z,11.31
2023-01-13T09:37:51.969Z,11.72
2023-01-13T09:43:02.962Z,11.50
2023-01-13T09:48:18.994Z,12.02
2023-01-13T09:53:25.769Z,12.24
2023-01-13T09:58:27.379Z,12.14
2023-01-13T10:03:35.015Z,11.68
2023-01-13T10:08:42.046Z,11.96
2023-01-13T10:13:43.932Z,12.13
2023-01-13T10:19:27.475Z,12.55
2023-01-13T10:25:04.585Z,11.96
2023-01-13T10:30:18.358Z,12.25
2023-01-13T10:35:49.858Z,12.03
2023-01-13T10:40:57.048Z,11.75
2023-01-13T10:46:10.611Z,11.87
2023-01-13T10:51:22.050Z,12.51
2023-01-13T10:56:27.665Z,12.14
2023-01-13T11:01:29.354Z,12.19
2023-01-13T11:06:31.078Z,12.09
2023-01-13T11:11:45.577Z,11.94
2023-01-13T11:16:53.827Z,12.04
2023-01-13T11:22:07.813Z,11.93
2023-01-13T11:27:31.274Z,12.02
2023-01-13T11:32:39.426Z,12.23
2023-01-13T11:37:46.157Z,11.93
2023-01-13T11:43:01.552Z,12.00
2023-01-13T11:48:04.117Z,12.11
2023-01-13T11:53:26.694Z,12.48
2023-01-13T11:58:52.690Z,12.64
2023-01-13T12:04:36.354Z,12.33
2023-01-13T12:10:20.672Z,12.30
2023-01-13T12:15:22.315Z,12.40
2023-01-13T12:20:26.688Z,11.71
2023-01-13T12:25:34.951Z,11.54
2023-01-13T12:30:44.476Z,10.90
2023-01-13T12:35:54.620Z,10.96
2023-01-13T12:41:12.940Z,11.30
2023-01-13T12:46:20.663Z,11.38
2023-01-13T12:51:33.802Z,11.26
2023-01-13T12:56:38.695Z,11.37
2023-01-13T13:01:40.408Z,11.41
2023-01-13T13:06:46.822Z,11.38
2023-01-13T13:11:49.070Z,11.44
2023-01-13T13:16:52.284Z,11.42
2023-01-13T13:22:11.999Z,10.91
2023-01-13T13:27:22.609Z,10.22
2023-01-13T13:32:30.118Z,9.33
2023-01-13T13:38:02.787Z,9.42
2023-01-13T13:43:11.553Z,9.46
2023-01-13T13:48:22.569Z,9.23
2023-01-13T13:53:28.306Z,9.16
2023-01-13T13:58:32.702Z,9.16
2023-01-13T14:03:39.740Z,9.28
2023-01-13T14:08:50.255Z,9.21
2023-01-13T14:14:06.519Z,9.48
2023-01-13T14:19:31.957Z,9.53
2023-01-13T14:24:33.929Z,9.44
2023-01-13T14:29:36.438Z,9.36
2023-01-13T14:34:38.998Z,9.24
2023-01-13T14:39:41.496Z,9.22
2023-01-13T14:44:48.536Z,9.30
2023-01-13T14:49:59.061Z,9.28
2023-01-13T14:55:06.547Z,9.33
2023-01-13T15:00:15.359Z,9.36
2023-01-13T15:05:16.801Z,9.49
2023-01-13T15:10:20.904Z,9.44
2023-01-13T15:15:37.676Z,9.48
2023-01-13T15:20:40.306Z,9.56
2023-01-13T15:25:43.028Z,9.64
2023-01-13T15:30:44.664Z,9.90
2023-01-13T15:35:51.380Z,9.78
2023-01-13T15:40:53.027Z,9.75
2023-01-13T15:45:54.537Z,9.77
2023-01-13T15:50:56.091Z,9.84
2023-01-13T15:55:58.840Z,9.78
2023-01-13T16:01:00.466Z,9.80
2023-01-13T16:06:02.042Z,9.78
2023-01-13T16:11:03.616Z,9.75
2023-01-13T16:16:19.354Z,9.55
2023-01-13T16:21:21.505Z,9.52
2023-01-13T16:26:25.972Z,9.73
2023-01-13T16:31:29.912Z,9.74
2023-01-13T16:36:35.382Z,9.90
2023-01-13T16:41:36.984Z,9.99
2023-01-13T16:46:38.503Z,10.03
2023-01-13T16:51:40.102Z,10.09
2023-01-13T16:56:41.617Z,9.99
2023-01-13T17:01:44.263Z,9.37
2023-01-13T17:06:59.808Z,9.13
2023-01-13T17:12:01.315Z,9.07
2023-01-13T17:17:02.864Z,9.07
2023-01-13T17:22:04.355Z,9.21
2023-01-13T17:27:06.011Z,9.43
2023-01-13T17:32:07.579Z,9.29
2023-01-13T17:37:09.993Z,9.44
2023-01-13T17:42:11.558Z,9.38
2023-01-13T17:47:13.056Z,9.44
2023-01-13T17:52:14.590Z,9.44
2023-01-13T17:57:16.076Z,9.47
2023-01-13T18:02:17.676Z,9.57
2023-01-13T18:07:19.279Z,9.59
2023-01-13T18:12:20.869Z,9.69
2023-01-13T18:17:22.457Z,9.79
2023-01-13T18:22:23.963Z,9.83
2023-01-13T18:27:33.507Z,10.04
2023-01-13T18:32:35.293Z,10.26
2023-01-13T18:37:41.135Z,10.31
2023-01-13T18:42:42.673Z,10.28
2023-01-13T18:47:44.234Z,10.42
2023-01-13T18:52:46.225Z,10.50
2023-01-13T18:57:48.532Z,10.54
2023-01-13T19:02:50.375Z,10.70
2023-01-13T19:07:51.955Z,10.62
2023-01-13T19:12:53.477Z,10.58
2023-01-13T19:17:55.000Z,10.56
2023-01-13T19:22:56.542Z,10.62
2023-01-13T19:27:58.040Z,10.63
2023-01-13T19:32:59.559Z,10.55
2023-01-13T19:38:01.071Z,10.60
2023-01-13T19:43:02.626Z,10.59
2023-01-13T19:48:04.374Z,10.60
2023-01-13T19:53:07.288Z,10.56
2023-01-13T19:58:08.921Z,10.60
2023-01-13T20:03:10.535Z,10.56
2023-01-13T20:08:12.576Z,10.54
2023-01-13T20:13:14.970Z,10.59
2023-01-13T20:18:16.486Z,10.64
2023-01-13T20:23:17.991Z,10.62
2023-01-13T20:28:19.492Z,10.70
2023-01-13T20:33:20.991Z,10.60
2023-01-13T20:38:22.509Z,10.64
2023-01-13T20:43:24.010Z,10.65
2023-01-13T20:48:25.503Z,10.51
2023-01-13T20:53:27.001Z,10.69
2023-01-13T20:58:28.545Z,10.65
2023-01-13T21:03:30.049Z,10.55
2023-01-13T21:08:31.565Z,10.55
2023-01-13T21:13:33.061Z,10.59
2023-01-13T21:18:34.628Z,10.55
2023-01-13T21:23:36.180Z,10.43
2023-01-13T21:28:37.705Z,10.39
2023-01-13T21:33:39.281Z,10.53
2023-01-13T21:38:41.030Z,10.57
2023-01-13T21:43:42.505Z,10.48
2023-01-13T21:48:43.995Z,10.45
2023-01-13T21:53:45.493Z,10.55
2023-01-13T21:58:47.439Z,10.44
2023-01-13T22:03:48.922Z,10.51
2023-01-13T22:08:50.555Z,10.44
2023-01-13T22:13:52.097Z,10.49
2023-01-13T22:18:53.677Z,10.49
2023-01-13T22:23:55.235Z,10.44
2023-01-13T22:28:56.801Z,10.50
2023-01-13T22:33:58.378Z,10.43
2023-01-13T22:38:59.894Z,10.49
2023-01-13T22:44:01.412Z,10.42
2023-01-13T22:49:03.170Z,10.43
2023-01-13T22:54:05.152Z,10.38
2023-01-13T22:59:07.685Z,10.39
2023-01-13T23:04:11.777Z,10.33
2023-01-13T23:09:13.370Z,10.34
2023-01-13T23:14:14.857Z,10.20
2023-01-13T23:19:16.437Z,10.21
2023-01-13T23:24:17.940Z,10.25
2023-01-13T23:29:19.518Z,10.10
2023-01-13T23:34:21.046Z,10.14
2023-01-13T23:39:22.560Z,10.07
2023-01-13T23:44:24.114Z,10.06
2023-01-13T23:49:25.649Z,10.10
2023-01-13T23:54:27.243Z,10.19
2023-01-13T23:59:28.743Z,10.18
